createdAt,value
2023-05-14T00:03:04.425Z,97150.75
2023-05-14T00:08:25.671Z,97147.47
2023-05-14T00:13:47.203Z,97140.34
2023-05-14T00:19:08.493Z,97140.31
2023-05-14T00:24:29.237Z,97133.44
2023-05-14T00:29:50.023Z,97126.72
2023-05-14T00:35:11.112Z,97124.97
2023-05-14T00:40:32.389Z,97114.22
2023-05-14T00:45:56.175Z,97114.19
2023-05-14T00:51:19.117Z,97098.94
2023-05-14T00:56:40.046Z,97110.03
2023-05-14T01:02:01.037Z,97107.72
2023-05-14T01:07:37.392Z,97117.06
2023-05-14T01:13:15.724Z,97116.81
2023-05-14T01:18:37.226Z,97121.50
2023-05-14T01:23:57.867Z,97122.47
2023-05-14T01:29:23.694Z,97104.44
2023-05-14T01:34:48.870Z,97106.47
2023-05-14T01:40:11.519Z,97101.66
2023-05-14T01:45:35.642Z,97092.72
2023-05-14T01:50:56.524Z,97100.88
2023-05-14T01:56:24.171Z,97095.50
2023-05-14T02:01:45.376Z,97092.22
2023-05-14T02:07:06.155Z,97095.22
2023-05-14T02:12:27.064Z,97085.78
2023-05-14T02:17:47.971Z,97085.09
2023-05-14T02:23:09.300Z,97079.72
2023-05-14T02:28:30.140Z,97079.28
2023-05-14T02:33:51.126Z,97069.09
2023-05-14T02:39:11.970Z,97072.28
2023-05-14T02:44:33.081Z,97066.75
2023-05-14T02:49:54.235Z,97069.25
2023-05-14T02:55:15.128Z,97069.66
2023-05-14T03:00:36.100Z,97061.69
2023-05-14T03:05:57.879Z,97061.84
2023-05-14T03:11:19.049Z,97058.38
2023-05-14T03:16:42.349Z,97059.59
2023-05-14T03:22:03.630Z,97057.91
2023-05-14T03:27:24.777Z,97064.22
2023-05-14T03:32:46.239Z,97063.56
2023-05-14T03:38:07.813Z,97059.69
2023-05-14T03:43:28.970Z,97050.38
2023-05-14T03:48:51.499Z,97051.22
2023-05-14T03:54:12.741Z,97056.97
2023-05-14T03:59:33.791Z,97057.66
2023-05-14T04:04:54.809Z,97059.31
2023-05-14T04:10:16.371Z,97052.25
2023-05-14T04:15:39.362Z,97046.63
2023-05-14T04:21:00.881Z,97038.53
2023-05-14T04:26:22.133Z,97046.69
2023-05-14T04:31:43.372Z,97045.81
2023-05-14T04:37:04.449Z,97041.16
2023-05-14T04:42:25.629Z,97039.09
2023-05-14T04:47:46.915Z,97037.56
2023-05-14T04:53:07.649Z,97033.56
2023-05-14T04:58:29.455Z,97025.44
2023-05-14T05:03:51.634Z,97022.53
2023-05-14T05:09:13.155Z,97024.72
2023-05-14T05:14:34.137Z,97029.63
2023-05-14T05:19:55.312Z,97028.31
2023-05-14T05:25:16.522Z,97020.81
2023-05-14T05:30:37.465Z,97024.59
2023-05-14T05:35:58.179Z,97024.06
2023-05-14T05:41:18.938Z,97020.78
2023-05-14T05:46:39.757Z,97009.78
2023-05-14T05:52:00.733Z,97008.56
2023-05-14T05:57:22.917Z,97008.94
2023-05-14T06:02:45.074Z,97011.44
2023-05-14T06:08:06.126Z,97013.88
2023-05-14T06:13:29.278Z,97010.53
2023-05-14T06:18:49.987Z,97004.28
2023-05-14T06:24:13.439Z,97007.28
2023-05-14T06:29:34.315Z,97008.13
2023-05-14T06:34:58.075Z,97009.25
2023-05-14T06:40:19.324Z,97005.75
2023-05-14T06:45:40.618Z,97013.22
2023-05-14T06:51:03.499Z,97010.16
2023-05-14T06:56:24.506Z,97012.34
2023-05-14T07:01:45.257Z,97011.34
2023-05-14T07:07:06.000Z,97007.66
2023-05-14T07:12:27.449Z,96997.75
2023-05-14T07:17:48.407Z,96997.78
2023-05-14T07:23:09.345Z,96996.88
2023-05-14T07:28:30.392Z,96992.66
2023-05-14T07:33:51.247Z,96987.16
2023-05-14T07:39:12.415Z,96976.84
2023-05-14T07:44:33.286Z,96984.06
2023-05-14T07:49:57.750Z,96981.50
2023-05-14T07:55:18.498Z,96990.03
2023-05-14T08:00:39.798Z,96989.53
2023-05-14T08:06:00.757Z,96986.03
2023-05-14T08:11:22.562Z,96983.78
2023-05-14T08:16:43.567Z,96981.38
2023-05-14T08:22:04.939Z,96966.88
2023-05-14T08:27:26.501Z,96963.19
2023-05-14T08:32:47.754Z,96954.03
2023-05-14T08:38:08.702Z,96964.19
2023-05-14T08:43:43.181Z,96959.09
2023-05-14T08:49:38.272Z,96956.00
2023-05-14T08:55:01.622Z,96949.81
2023-05-14T09:00:23.396Z,96936.22
2023-05-14T09:05:45.957Z,96931.63
2023-05-14T09:11:06.988Z,96931.63
2023-05-14T09:16:28.610Z,96926.38
2023-05-14T09:21:50.014Z,96924.41
2023-05-14T09:27:20.159Z,96924.06
2023-05-14T09:32:46.033Z,96915.22
2023-05-14T09:38:07.920Z,96919.00
2023-05-14T09:43:29.153Z,96913.91
2023-05-14T09:48:50.501Z,96914.56
2023-05-14T09:54:12.018Z,96913.91
2023-05-14T09:59:33.104Z,96903.22
2023-05-14T10:04:58.120Z,96905.38
2023-05-14T10:10:21.413Z,96890.59
2023-05-14T10:15:56.106Z,96892.88
2023-05-14T10:21:20.238Z,96891.72
2023-05-14T10:26:42.153Z,96896.81
2023-05-14T10:32:08.274Z,96898.47
2023-05-14T10:37:30.656Z,96892.56
2023-05-14T10:42:52.706Z,96882.06
2023-05-14T10:48:14.468Z,96886.69
2023-05-14T10:53:37.917Z,96871.69
2023-05-14T10:59:00.373Z,96868.56
2023-05-14T11:04:25.264Z,96857.75
2023-05-14T11:09:47.308Z,96849.50
2023-05-14T11:15:13.389Z,96848.56
2023-05-14T11:20:36.113Z,96844.88
2023-05-14T11:26:01.341Z,96841.91
2023-05-14T11:31:25.710Z,96839.63
2023-05-14T11:36:49.748Z,96834.38
2023-05-14T11:42:13.569Z,96830.66
2023-05-14T11:47:34.828Z,96829.53
2023-05-14T11:52:59.141Z,96820.94
2023-05-14T11:58:20.475Z,96826.56
2023-05-14T12:03:43.889Z,96811.53
2023-05-14T12:09:08.441Z,96811.94
2023-05-14T12:14:29.578Z,96819.44
2023-05-14T12:19:55.065Z,96807.34
2023-05-14T12:25:16.360Z,96807.97
2023-05-14T12:30:38.168Z,96799.38
2023-05-14T12:36:19.723Z,96793.75
2023-05-14T12:41:41.927Z,96785.53
2023-05-14T12:47:02.959Z,96780.28
2023-05-14T12:52:36.861Z,96776.47
2023-05-14T12:58:00.120Z,96776.94
2023-05-14T13:03:21.264Z,96769.94
2023-05-14T13:08:42.762Z,96768.47
2023-05-14T13:14:04.293Z,96763.22
2023-05-14T13:19:25.339Z,96757.44
2023-05-14T13:24:47.718Z,96764.25
2023-05-14T13:30:09.119Z,96759.31
2023-05-14T13:35:30.390Z,96759.03
2023-05-14T13:40:51.179Z,96760.00
2023-05-14T13:46:13.977Z,96749.72
2023-05-14T13:51:35.074Z,96742.50
2023-05-14T13:56:56.426Z,96739.66
2023-05-14T14:02:17.890Z,96739.25
2023-05-14T14:07:43.193Z,96739.28
2023-05-14T14:13:04.148Z,96748.66
2023-05-14T14:18:25.132Z,96745.13
2023-05-14T14:23:46.381Z,96746.66
2023-05-14T14:29:07.359Z,96741.78
2023-05-14T14:34:28.210Z,96748.00
2023-05-14T14:39:49.366Z,96744.09
2023-05-14T14:45:11.106Z,96737.53
2023-05-14T14:50:32.412Z,96737.41
2023-05-14T14:55:53.697Z,96738.69
2023-05-14T15:01:14.765Z,96741.16
2023-05-14T15:06:35.730Z,96736.22
2023-05-14T15:11:56.835Z,96743.59
2023-05-14T15:17:17.895Z,96740.13
2023-05-14T15:22:38.821Z,96740.78
2023-05-14T15:28:00.204Z,96744.38
2023-05-14T15:33:21.324Z,96746.34
2023-05-14T15:38:42.637Z,96747.31
2023-05-14T15:44:03.888Z,96755.28
2023-05-14T15:49:25.099Z,96750.69
2023-05-14T15:54:47.345Z,96744.63
2023-05-14T16:00:12.099Z,96750.03
2023-05-14T16:05:33.268Z,96744.69
2023-05-14T16:10:54.515Z,96747.97
2023-05-14T16:16:15.912Z,96740.91
2023-05-14T16:21:37.229Z,96736.25
2023-05-14T16:27:00.124Z,96733.66
2023-05-14T16:32:24.060Z,96726.94
2023-05-14T16:37:44.992Z,96731.22
2023-05-14T16:43:05.892Z,96726.09
2023-05-14T16:48:28.070Z,96722.97
2023-05-14T16:53:49.413Z,96727.53
2023-05-14T16:59:10.550Z,96725.69
2023-05-14T17:04:32.997Z,96725.03
2023-05-14T17:09:54.034Z,96720.56
2023-05-14T17:15:15.084Z,96713.50
2023-05-14T17:20:36.114Z,96719.66
2023-05-14T17:25:57.356Z,96712.31
2023-05-14T17:31:18.185Z,96710.38
2023-05-14T17:36:39.618Z,96704.78
2023-05-14T17:42:00.459Z,96704.06
2023-05-14T17:47:21.311Z,96704.09
2023-05-14T17:52:44.258Z,96702.38
2023-05-14T17:58:05.601Z,96700.25
2023-05-14T18:03:26.981Z,96700.13
2023-05-14T18:08:50.090Z,96695.94
2023-05-14T18:14:10.880Z,96696.72
2023-05-14T18:19:31.969Z,96692.84
2023-05-14T18:24:53.237Z,96681.41
2023-05-14T18:30:15.633Z,96682.75
2023-05-14T18:35:36.608Z,96682.53
2023-05-14T18:40:57.855Z,96683.13
2023-05-14T18:46:18.723Z,96679.50
2023-05-14T18:51:40.904Z,96671.34
2023-05-14T18:57:02.021Z,96675.91
2023-05-14T19:02:23.251Z,96670.50
2023-05-14T19:07:44.365Z,96678.75
2023-05-14T19:13:05.222Z,96668.28
2023-05-14T19:18:26.576Z,96669.00
2023-05-14T19:23:47.372Z,96664.63
2023-05-14T19:29:08.422Z,96655.66
2023-05-14T19:34:29.161Z,96659.44
2023-05-14T19:39:49.872Z,96657.34
2023-05-14T19:45:11.167Z,96648.69
2023-05-14T19:50:37.073Z,96648.69
2023-05-14T19:55:59.995Z,96636.44
2023-05-14T20:01:21.146Z,96628.34
2023-05-14T20:06:45.553Z,96625.91
2023-05-14T20:12:06.906Z,96622.50
2023-05-14T20:17:27.893Z,96621.97
2023-05-14T20:22:49.158Z,96616.06
2023-05-14T20:28:10.841Z,96612.47
2023-05-14T20:33:31.999Z,96607.88
2023-05-14T20:38:53.013Z,96598.53
2023-05-14T20:44:16.435Z,96595.59
2023-05-14T20:49:38.773Z,96585.94
2023-05-14T20:55:01.503Z,96584.47
2023-05-14T21:00:22.841Z,96571.59
2023-05-14T21:05:43.821Z,96561.63
2023-05-14T21:11:04.976Z,96560.63
2023-05-14T21:16:26.193Z,96552.97
2023-05-14T21:21:47.517Z,96549.06
2023-05-14T21:27:08.638Z,96539.22
2023-05-14T21:32:29.703Z,96529.06
2023-05-14T21:37:51.304Z,96530.63
2023-05-14T21:43:12.521Z,96529.34
2023-05-14T21:48:33.569Z,96523.81
2023-05-14T21:53:54.607Z,96518.41
2023-05-14T21:59:15.499Z,96516.91
2023-05-14T22:04:36.565Z,96502.00
2023-05-14T22:09:57.599Z,96497.25
2023-05-14T22:15:18.460Z,96488.44
2023-05-14T22:20:40.023Z,96490.22
2023-05-14T22:26:01.360Z,96486.25
2023-05-14T22:31:22.712Z,96475.09
2023-05-14T22:36:43.585Z,96471.97
2023-05-14T22:42:04.832Z,96467.72
2023-05-14T22:47:26.033Z,96460.50
2023-05-14T22:52:46.748Z,96454.50
2023-05-14T22:58:07.687Z,96453.38
2023-05-14T23:03:28.986Z,96445.06
2023-05-14T23:08:50.012Z,96438.06
2023-05-14T23:14:11.128Z,96427.25
2023-05-14T23:19:32.159Z,96420.69
2023-05-14T23:24:52.925Z,96413.31
2023-05-14T23:30:13.811Z,96397.66
2023-05-14T23:35:37.617Z,96398.13
2023-05-14T23:40:58.723Z,96396.28
2023-05-14T23:46:19.447Z,96385.19
2023-05-14T23:51:40.604Z,96378.97
2023-05-14T23:57:03.304Z,96376.69
